createdAt,value
2017-10-30T00:01:18.577Z,98539.07
2017-10-30T00:03:45.172Z,98542.10
2017-10-30T00:06:11.836Z,98544.86
2017-10-30T00:08:38.430Z,98546.74
2017-10-30T00:11:04.670Z,98549.02
2017-10-30T00:13:30.894Z,98555.30
2017-10-30T00:15:57.154Z,98545.00
2017-10-30T00:18:23.378Z,98565.78
2017-10-30T00:20:49.607Z,98555.84
2017-10-30T00:23:16.081Z,98562.29
2017-10-30T00:25:42.647Z,98566.23
2017-10-30T00:28:09.105Z,98555.86
2017-10-30T00:30:35.741Z,98544.80
2017-10-30T00:33:01.999Z,98552.37
2017-10-30T00:35:28.591Z,98555.10
2017-10-30T00:37:55.108Z,98552.00
2017-10-30T00:40:21.550Z,98553.00
2017-10-30T00:42:48.113Z,98539.05
2017-10-30T00:45:14.732Z,98535.89
2017-10-30T00:47:41.148Z,98533.97
2017-10-30T00:50:07.566Z,98547.27
2017-10-30T00:52:34.032Z,98544.92
2017-10-30T00:55:00.486Z,98535.93
2017-10-30T00:57:27.119Z,98538.31
2017-10-30T00:59:53.609Z,98544.80
2017-10-30T01:02:20.050Z,98538.91
2017-10-30T01:04:46.492Z,98527.63
2017-10-30T01:07:12.909Z,98533.64
2017-10-30T01:09:39.350Z,98551.58
2017-10-30T01:12:05.792Z,98549.58
2017-10-30T01:14:32.210Z,98544.95
2017-10-30T01:16:58.800Z,98550.71
2017-10-30T01:19:25.436Z,98564.62
2017-10-30T01:21:52.058Z,98574.88
2017-10-30T01:24:18.511Z,98577.36
2017-10-30T01:26:44.994Z,98575.64
2017-10-30T01:29:11.535Z,98571.53
2017-10-30T01:31:38.003Z,98560.03
2017-10-30T01:34:04.647Z,98576.94
2017-10-30T01:36:31.080Z,98583.57
2017-10-30T01:38:57.724Z,98590.55
2017-10-30T01:41:24.019Z,98579.86
2017-10-30T01:43:50.383Z,98586.44
2017-10-30T01:46:17.001Z,98585.75
2017-10-30T01:48:43.443Z,98584.16
2017-10-30T01:51:10.093Z,98599.47
2017-10-30T01:53:36.704Z,98619.45
2017-10-30T01:56:03.148Z,98628.13
2017-10-30T01:58:29.667Z,98621.80
2017-10-30T02:00:56.104Z,98640.05
2017-10-30T02:03:22.519Z,98653.15
2017-10-30T02:05:48.961Z,98663.58
2017-10-30T02:08:15.480Z,98670.93
2017-10-30T02:10:41.821Z,98677.88
2017-10-30T02:13:08.261Z,98685.13
2017-10-30T02:15:34.679Z,98699.27
2017-10-30T02:18:01.121Z,98689.16
2017-10-30T02:20:27.568Z,98684.70
2017-10-30T02:22:54.006Z,98696.81
2017-10-30T02:25:20.521Z,98699.08
2017-10-30T02:27:46.814Z,98683.53
2017-10-30T02:30:13.245Z,98697.83
2017-10-30T02:32:39.870Z,98698.95
2017-10-30T02:35:06.364Z,98704.06
2017-10-30T02:37:32.817Z,98706.45
2017-10-30T02:39:59.220Z,98714.84
2017-10-30T02:42:25.665Z,98721.04
2017-10-30T02:44:52.111Z,98731.33
2017-10-30T02:47:18.621Z,98723.27
2017-10-30T02:49:45.088Z,98724.41
2017-10-30T02:52:11.530Z,98738.13
2017-10-30T02:54:37.977Z,98730.80
2017-10-30T02:57:04.616Z,98739.71
2017-10-30T02:59:31.232Z,98751.50
2017-10-30T03:01:57.690Z,98757.08
2017-10-30T03:04:24.120Z,98768.11
2017-10-30T03:06:50.340Z,98769.62
2017-10-30T03:09:16.749Z,98758.48
2017-10-30T03:11:43.217Z,98756.32
2017-10-30T03:14:09.709Z,98761.14
2017-10-30T03:16:36.273Z,98762.70
2017-10-30T03:19:02.924Z,98762.28
2017-10-30T03:21:29.153Z,98776.25
2017-10-30T03:23:55.799Z,98783.30
2017-10-30T03:26:22.433Z,98788.45
2017-10-30T03:28:49.059Z,98790.20
2017-10-30T03:31:15.503Z,98804.20
2017-10-30T03:33:42.117Z,98806.38
2017-10-30T03:36:08.573Z,98809.11
2017-10-30T03:38:35.216Z,98811.03
2017-10-30T03:41:01.842Z,98813.56
2017-10-30T03:43:28.084Z,98804.39
2017-10-30T03:45:54.516Z,98800.84
2017-10-30T03:48:21.143Z,98811.13
2017-10-30T03:50:47.791Z,98815.60
2017-10-30T03:53:14.275Z,98819.08
2017-10-30T03:55:40.719Z,98814.77
2017-10-30T03:58:07.134Z,98822.42
2017-10-30T04:00:33.728Z,98818.25
2017-10-30T04:03:00.365Z,98815.05
2017-10-30T04:05:26.855Z,98819.84
2017-10-30T04:07:53.277Z,98832.29
2017-10-30T04:10:19.744Z,98834.03
2017-10-30T04:12:46.099Z,98833.39
2017-10-30T04:15:12.535Z,98824.89
2017-10-30T04:17:38.810Z,98822.25
2017-10-30T04:20:05.385Z,98819.08
2017-10-30T04:22:31.935Z,98822.86
2017-10-30T04:24:58.373Z,98828.61
2017-10-30T04:27:25.013Z,98825.50
2017-10-30T04:29:51.629Z,98832.20
2017-10-30T04:32:18.069Z,98823.23
2017-10-30T04:34:44.564Z,98819.70
2017-10-30T04:37:11.003Z,98831.36
2017-10-30T04:39:37.482Z,98824.81
2017-10-30T04:42:04.121Z,98830.03
2017-10-30T04:44:30.728Z,98840.42
2017-10-30T04:46:57.145Z,98839.17
2017-10-30T04:49:23.587Z,98829.73
2017-10-30T04:51:50.006Z,98847.09
2017-10-30T04:54:17.005Z,98843.14
2017-10-30T04:56:43.649Z,98838.48
2017-10-30T04:59:10.155Z,98842.72
2017-10-30T05:01:36.818Z,98842.20
2017-10-30T05:04:03.337Z,98845.23
2017-10-30T05:06:29.778Z,98838.75
2017-10-30T05:08:56.271Z,98854.15
2017-10-30T05:11:22.652Z,98856.62
2017-10-30T05:13:49.076Z,98860.23
2017-10-30T05:16:15.723Z,98862.34
2017-10-30T05:18:42.159Z,98858.23
2017-10-30T05:21:08.786Z,98862.98
2017-10-30T05:23:35.437Z,98870.08
2017-10-30T05:26:01.940Z,98858.34
2017-10-30T05:28:28.455Z,98873.20
2017-10-30T05:30:54.897Z,98874.80
2017-10-30T05:33:21.365Z,98887.77
2017-10-30T05:35:48.006Z,98899.09
2017-10-30T05:38:14.647Z,98913.15
2017-10-30T05:40:41.140Z,98921.98
2017-10-30T05:43:07.581Z,98920.95
2017-10-30T05:45:33.956Z,98930.28
2017-10-30T05:48:00.587Z,98936.80
2017-10-30T05:50:27.083Z,98951.45
2017-10-30T05:52:53.524Z,98941.67
2017-10-30T05:55:19.942Z,98965.09
2017-10-30T05:57:46.383Z,98961.84
2017-10-30T06:00:12.960Z,98974.38
2017-10-30T06:02:39.566Z,98974.29
2017-10-30T06:05:06.011Z,98984.07
2017-10-30T06:07:32.676Z,98983.91
2017-10-30T06:09:59.194Z,98982.98
2017-10-30T06:12:25.537Z,99001.61
2017-10-30T06:14:51.999Z,99003.23
2017-10-30T06:17:18.612Z,99004.72
2017-10-30T06:19:45.087Z,99015.97
2017-10-30T06:22:11.551Z,99027.23
2017-10-30T06:24:38.069Z,99021.20
2017-10-30T06:27:04.403Z,99040.07
2017-10-30T06:29:30.955Z,99035.95
2017-10-30T06:31:57.372Z,99035.17
2017-10-30T06:34:23.737Z,99022.98
2017-10-30T06:36:50.239Z,99043.82
2017-10-30T06:39:16.671Z,99033.33
2017-10-30T06:41:43.111Z,99036.09
2017-10-30T06:44:09.785Z,99035.50
2017-10-30T06:46:36.398Z,99039.92
2017-10-30T06:49:02.814Z,99053.44
2017-10-30T06:51:29.255Z,99051.93
2017-10-30T06:53:55.518Z,99059.66
2017-10-30T06:56:22.040Z,99061.28
2017-10-30T06:58:48.702Z,99074.88
2017-10-30T07:01:15.174Z,99079.95
2017-10-30T07:03:41.764Z,99082.84
2017-10-30T07:06:08.383Z,99096.30
2017-10-30T07:08:34.940Z,99101.63
2017-10-30T07:11:01.440Z,99107.70
2017-10-30T07:13:28.113Z,99110.09
2017-10-30T07:15:54.749Z,99107.69
2017-10-30T07:18:21.369Z,99122.30
2017-10-30T07:20:48.027Z,99127.41
2017-10-30T07:23:14.571Z,99116.97
2017-10-30T07:25:41.070Z,99137.11
2017-10-30T07:28:07.586Z,99136.80
2017-10-30T07:30:34.152Z,99135.84
2017-10-30T07:33:00.670Z,99135.20
2017-10-30T07:35:27.138Z,99143.52
2017-10-30T07:37:53.984Z,99154.34
2017-10-30T07:40:20.416Z,99158.89
2017-10-30T07:42:46.911Z,99171.38
2017-10-30T07:45:13.284Z,99172.59
2017-10-30T07:47:39.716Z,99174.49
2017-10-30T07:50:06.215Z,99178.55
2017-10-30T07:52:32.787Z,99186.36
2017-10-30T07:54:59.220Z,99191.01
2017-10-30T07:57:25.839Z,99187.13
2017-10-30T07:59:52.257Z,99190.08
2017-10-30T08:02:18.675Z,99193.26
2017-10-30T08:04:45.366Z,99177.02
2017-10-30T08:07:11.798Z,99194.09
2017-10-30T08:09:38.299Z,99194.80
2017-10-30T08:12:04.715Z,99195.08
2017-10-30T08:14:31.159Z,99210.36
2017-10-30T08:16:57.675Z,99220.79
2017-10-30T08:19:24.113Z,99218.36
2017-10-30T08:21:50.560Z,99217.29
2017-10-30T08:24:17.032Z,99222.91
2017-10-30T08:26:43.517Z,99230.36
2017-10-30T08:29:09.961Z,99231.34
2017-10-30T08:31:36.344Z,99231.31
2017-10-30T08:34:02.819Z,99261.27
2017-10-30T08:36:29.261Z,99251.41
2017-10-30T08:38:55.702Z,99255.55
2017-10-30T08:41:22.121Z,99259.61
2017-10-30T08:43:48.708Z,99258.95
2017-10-30T08:46:15.324Z,99281.20
2017-10-30T08:48:41.982Z,99271.00
2017-10-30T08:51:08.464Z,99275.18
2017-10-30T08:53:35.057Z,99288.19
2017-10-30T08:56:01.447Z,99295.80
2017-10-30T08:58:27.787Z,99284.64
2017-10-30T09:00:54.357Z,99303.73
2017-10-30T09:03:20.973Z,99289.58
2017-10-30T09:05:47.389Z,99296.52
2017-10-30T09:08:13.832Z,99309.04
2017-10-30T09:10:40.349Z,99311.62
2017-10-30T09:13:06.799Z,99319.95
2017-10-30T09:15:33.234Z,99317.89
2017-10-30T09:17:59.749Z,99305.50
2017-10-30T09:20:26.190Z,99319.34
2017-10-30T09:22:52.534Z,99308.99
2017-10-30T09:25:19.050Z,99318.20
2017-10-30T09:27:45.496Z,99305.46
2017-10-30T09:30:11.835Z,99317.19
2017-10-30T09:32:38.250Z,99323.94
2017-10-30T09:35:04.718Z,99309.05
2017-10-30T09:37:31.265Z,99321.51
2017-10-30T09:39:57.748Z,99318.96
2017-10-30T09:42:24.316Z,99310.16
2017-10-30T09:44:50.737Z,99319.00
2017-10-30T09:47:17.411Z,99324.06
2017-10-30T09:49:44.051Z,99317.31
2017-10-30T09:52:10.664Z,99325.83
2017-10-30T09:54:37.182Z,99314.87
2017-10-30T09:57:03.622Z,99318.81
2017-10-30T09:59:30.036Z,99329.28
2017-10-30T10:01:56.476Z,99330.23
2017-10-30T10:04:23.081Z,99334.37
2017-10-30T10:06:49.666Z,99327.72
2017-10-30T10:09:16.307Z,99333.48
2017-10-30T10:11:42.726Z,99334.22
2017-10-30T10:14:09.166Z,99320.61
2017-10-30T10:16:35.846Z,99333.51
2017-10-30T10:19:02.324Z,99323.53
2017-10-30T10:21:28.911Z,99318.81
2017-10-30T10:23:55.530Z,99332.27
2017-10-30T10:26:21.932Z,99339.63
2017-10-30T10:28:48.367Z,99327.56
2017-10-30T10:31:15.032Z,99352.29
2017-10-30T10:33:41.703Z,99344.23
2017-10-30T10:36:08.362Z,99337.48
2017-10-30T10:38:34.970Z,99331.88
2017-10-30T10:41:01.455Z,99337.79
2017-10-30T10:43:28.038Z,99341.62
2017-10-30T10:45:54.663Z,99353.45
2017-10-30T10:48:21.316Z,99350.66
2017-10-30T10:50:47.820Z,99360.70
2017-10-30T10:53:14.338Z,99368.31
2017-10-30T10:55:40.781Z,99361.84
2017-10-30T10:58:07.459Z,99366.75
2017-10-30T11:00:34.098Z,99368.20
2017-10-30T11:03:00.344Z,99372.46
2017-10-30T11:05:26.593Z,99358.91
2017-10-30T11:07:52.874Z,99378.74
2017-10-30T11:10:19.095Z,99378.99
2017-10-30T11:12:45.351Z,99380.38
2017-10-30T11:15:11.628Z,99385.71
2017-10-30T11:17:37.860Z,99371.26
2017-10-30T11:20:04.087Z,99400.27
2017-10-30T11:22:30.363Z,99395.78
2017-10-30T11:24:56.600Z,99384.48
2017-10-30T11:27:22.902Z,99385.34
2017-10-30T11:29:49.543Z,99407.56
2017-10-30T11:32:15.960Z,99403.69
2017-10-30T11:34:42.423Z,99412.05
2017-10-30T11:37:09.043Z,99418.62
2017-10-30T11:39:35.293Z,99417.31
2017-10-30T11:42:01.777Z,99427.17
2017-10-30T11:44:28.222Z,99422.56
2017-10-30T11:46:54.661Z,99434.92
2017-10-30T11:49:21.230Z,99458.20
2017-10-30T11:51:47.663Z,99445.13
2017-10-30T11:54:14.164Z,99448.54
2017-10-30T11:56:40.728Z,99448.75
2017-10-30T11:59:07.247Z,99438.20
2017-10-30T12:01:33.769Z,99441.77
2017-10-30T12:04:00.106Z,99449.97
2017-10-30T12:06:26.622Z,99449.76
2017-10-30T12:08:52.966Z,99445.39
2017-10-30T12:11:19.541Z,99448.95
2017-10-30T12:13:46.177Z,99436.21
2017-10-30T12:16:12.667Z,99449.42
2017-10-30T12:18:39.109Z,99446.61
2017-10-30T12:21:05.624Z,99452.62
2017-10-30T12:23:32.068Z,99458.17
2017-10-30T12:25:58.409Z,99449.75
2017-10-30T12:28:24.773Z,99450.08
2017-10-30T12:30:51.391Z,99432.11
2017-10-30T12:33:17.813Z,99438.60
2017-10-30T12:35:44.490Z,99444.70
2017-10-30T12:38:10.924Z,99446.15
2017-10-30T12:40:37.314Z,99453.64
2017-10-30T12:43:03.992Z,99467.61
2017-10-30T12:45:30.494Z,99469.80
2017-10-30T12:47:56.861Z,99473.52
2017-10-30T12:50:23.110Z,99462.49
2017-10-30T12:52:49.525Z,99469.81
2017-10-30T12:55:16.138Z,99482.92
2017-10-30T12:57:42.826Z,99481.81
2017-10-30T13:00:09.625Z,99493.81
2017-10-30T13:02:36.063Z,99488.58
2017-10-30T13:05:02.556Z,99487.31
2017-10-30T13:07:28.777Z,99499.28
2017-10-30T13:09:55.004Z,99497.65
2017-10-30T13:12:21.276Z,99510.89
2017-10-30T13:14:47.795Z,99512.05
2017-10-30T13:17:14.241Z,99513.41
2017-10-30T13:19:40.534Z,99513.22
2017-10-30T13:22:06.765Z,99519.88
2017-10-30T13:36:32.215Z,99558.45
2017-10-30T13:38:58.717Z,99555.49
2017-10-30T13:41:25.372Z,99536.94
2017-10-30T13:43:52.016Z,99574.00
2017-10-30T13:46:18.494Z,99573.61
2017-10-30T13:48:44.973Z,99570.80
2017-10-30T13:51:11.489Z,99569.05
2017-10-30T13:53:37.907Z,99580.03
2017-10-30T13:56:04.349Z,99580.16
2017-10-30T13:58:31.033Z,99593.59
2017-10-30T14:00:57.265Z,99590.52
2017-10-30T14:03:23.775Z,99608.91
2017-10-30T14:05:50.191Z,99606.42
2017-10-30T14:08:16.634Z,99604.41
2017-10-30T14:10:43.050Z,99614.78
2017-10-30T14:13:09.569Z,99626.56
2017-10-30T14:15:36.039Z,99619.03
2017-10-30T14:18:02.500Z,99625.48
2017-10-30T14:20:28.992Z,99627.87
2017-10-30T14:22:55.572Z,99635.83
2017-10-30T14:25:22.015Z,99633.76
2017-10-30T14:27:48.430Z,99643.75
2017-10-30T14:30:15.075Z,99642.37
2017-10-30T14:32:41.306Z,99639.97
2017-10-30T14:35:07.920Z,99646.77
2017-10-30T14:37:34.362Z,99645.68
2017-10-30T14:40:00.811Z,99637.75
2017-10-30T14:42:27.293Z,99645.92
2017-10-30T14:44:53.736Z,99657.71
2017-10-30T14:47:20.186Z,99658.70
2017-10-30T14:49:46.693Z,99663.19
2017-10-30T14:52:13.137Z,99667.02
2017-10-30T14:54:39.369Z,99674.48
2017-10-30T14:57:05.645Z,99662.47
2017-10-30T14:59:31.860Z,99674.16
2017-10-30T15:01:58.105Z,99680.80
2017-10-30T15:04:24.384Z,99675.18
2017-10-30T15:06:50.616Z,99677.39
2017-10-30T15:09:16.842Z,99676.95
2017-10-30T15:11:43.212Z,99670.48
2017-10-30T15:14:09.447Z,99675.49
2017-10-30T15:16:35.702Z,99684.38
2017-10-30T15:19:01.974Z,99683.69
2017-10-30T15:21:28.246Z,99687.92
2017-10-30T15:23:54.478Z,99690.41
2017-10-30T15:26:20.741Z,99693.11
2017-10-30T15:28:46.971Z,99693.95
2017-10-30T15:31:13.192Z,99698.39
2017-10-30T15:33:39.455Z,99701.30
2017-10-30T15:36:05.679Z,99707.78
2017-10-30T15:38:31.909Z,99707.20
2017-10-30T15:40:58.178Z,99702.68
2017-10-30T15:43:24.601Z,99680.09
2017-10-30T15:45:51.083Z,99713.38
2017-10-30T15:48:17.670Z,99720.58
2017-10-30T15:50:44.307Z,99726.66
2017-10-30T15:53:10.658Z,99733.23
2017-10-30T15:55:37.125Z,99739.41
2017-10-30T15:58:03.566Z,99740.25
2017-10-30T16:00:29.984Z,99748.35
2017-10-30T16:02:56.229Z,99748.35
2017-10-30T16:05:22.446Z,99758.02
2017-10-30T16:07:48.687Z,99757.20
2017-10-30T16:10:14.968Z,99763.45
2017-10-30T16:12:41.280Z,99771.16
2017-10-30T16:15:07.483Z,99780.11
2017-10-30T16:17:33.724Z,99775.28
2017-10-30T16:19:59.957Z,99786.38
2017-10-30T16:22:26.208Z,99780.47
2017-10-30T16:24:52.472Z,99790.87
2017-10-30T16:27:18.676Z,99802.19
2017-10-30T16:29:44.898Z,99797.72
2017-10-30T16:32:11.301Z,99800.19
2017-10-30T16:34:37.526Z,99804.92
2017-10-30T16:37:03.756Z,99811.28
2017-10-30T16:39:30.022Z,99809.25
2017-10-30T16:41:56.257Z,99815.52
2017-10-30T16:44:22.491Z,99818.17
2017-10-30T16:46:48.755Z,99828.01
2017-10-30T16:49:14.979Z,99829.58
2017-10-30T16:51:41.214Z,99831.52
2017-10-30T16:54:07.563Z,99830.98
2017-10-30T16:56:33.801Z,99844.45
2017-10-30T16:59:00.044Z,99847.23
2017-10-30T17:01:26.343Z,99851.47
2017-10-30T17:03:52.570Z,99849.58
2017-10-30T17:06:18.816Z,99864.27
2017-10-30T17:08:45.068Z,99865.06
2017-10-30T17:11:11.309Z,99864.59
2017-10-30T17:13:37.621Z,99875.78
2017-10-30T17:16:03.926Z,99866.70
2017-10-30T17:18:30.154Z,99873.04
2017-10-30T17:20:56.382Z,99879.72
2017-10-30T17:23:22.657Z,99877.08
2017-10-30T17:25:48.876Z,99882.66
2017-10-30T17:28:15.108Z,99881.80
2017-10-30T17:30:41.386Z,99891.16
2017-10-30T17:33:07.609Z,99889.88
2017-10-30T17:35:33.839Z,99898.27
2017-10-30T17:38:00.099Z,99902.52
2017-10-30T17:40:26.334Z,99903.61
2017-10-30T17:42:52.590Z,99900.94
2017-10-30T17:45:18.858Z,99902.07
2017-10-30T17:47:45.080Z,99905.94
2017-10-30T17:50:11.320Z,99905.22
2017-10-30T17:52:37.627Z,99911.63
2017-10-30T17:55:03.868Z,99913.64
2017-10-30T17:57:30.146Z,99914.77
2017-10-30T17:59:56.465Z,99910.93
2017-10-30T18:02:22.690Z,99911.00
2017-10-30T18:04:48.936Z,99919.31
2017-10-30T18:07:15.281Z,99921.07
2017-10-30T18:09:41.515Z,99929.09
2017-10-30T18:12:07.762Z,99919.28
2017-10-30T18:14:34.042Z,99919.80
2017-10-30T18:17:00.317Z,99926.36
2017-10-30T18:19:26.556Z,99930.11
2017-10-30T18:21:52.827Z,99928.92
2017-10-30T18:24:19.274Z,99924.31
2017-10-30T18:26:45.526Z,99933.30
2017-10-30T18:29:11.804Z,99929.61
2017-10-30T18:31:38.028Z,99932.98
2017-10-30T18:34:04.260Z,99932.42
2017-10-30T18:36:30.526Z,99923.29
2017-10-30T18:38:56.747Z,99931.55
2017-10-30T18:41:22.988Z,99929.03
2017-10-30T18:43:49.275Z,99935.29
2017-10-30T18:46:15.512Z,99938.92
2017-10-30T18:48:41.750Z,99936.61
2017-10-30T18:51:08.030Z,99936.82
2017-10-30T18:53:34.271Z,99949.02
2017-10-30T18:56:00.504Z,99943.75
2017-10-30T18:58:26.790Z,99951.55
2017-10-30T19:00:53.013Z,99958.23
2017-10-30T19:03:19.259Z,99965.25
2017-10-30T19:05:45.512Z,99959.92
2017-10-30T19:08:11.735Z,99959.05
2017-10-30T19:10:38.025Z,99969.83
2017-10-30T19:13:04.311Z,99969.56
2017-10-30T19:15:30.669Z,99981.21
2017-10-30T19:17:56.904Z,99975.36
2017-10-30T19:20:23.192Z,99976.29
2017-10-30T19:22:49.414Z,99977.37
2017-10-30T19:25:15.659Z,99983.97
2017-10-30T19:27:41.955Z,99978.90
2017-10-30T19:30:08.179Z,99988.03
2017-10-30T19:32:34.423Z,99986.42
2017-10-30T19:35:00.703Z,99991.08
2017-10-30T19:37:26.936Z,99995.32
2017-10-30T19:39:53.145Z,99997.69
2017-10-30T19:42:19.409Z,100001.68
2017-10-30T19:44:45.638Z,99995.08
2017-10-30T19:47:11.867Z,100009.23
2017-10-30T19:49:38.145Z,100010.81
2017-10-30T19:52:04.560Z,100018.30
2017-10-30T19:54:30.856Z,100023.27
2017-10-30T19:56:57.274Z,100024.65
2017-10-30T19:59:23.503Z,100022.15
2017-10-30T20:01:49.744Z,100020.50
2017-10-30T20:04:16.031Z,100025.25
2017-10-30T20:06:42.254Z,100031.90
2017-10-30T20:09:08.483Z,100028.55
2017-10-30T20:11:34.727Z,100030.95
2017-10-30T20:14:00.959Z,100027.97
2017-10-30T20:16:27.191Z,100033.05
2017-10-30T20:18:53.470Z,100030.09
2017-10-30T20:21:19.701Z,100029.94
2017-10-30T20:23:45.924Z,100036.48
2017-10-30T20:26:12.328Z,100040.43
2017-10-30T20:28:38.558Z,100038.20
2017-10-30T20:31:05.036Z,100034.05
2017-10-30T20:33:31.320Z,100037.94
2017-10-30T20:35:57.560Z,100040.23
2017-10-30T20:38:23.801Z,100048.67
2017-10-30T20:40:50.073Z,100045.66
2017-10-30T20:43:16.305Z,100050.62
2017-10-30T20:45:42.540Z,100057.80
2017-10-30T20:48:08.813Z,100051.33
2017-10-30T20:50:35.050Z,100059.84
2017-10-30T20:53:01.346Z,100053.13
2017-10-30T20:55:27.637Z,100051.77
2017-10-30T20:57:53.884Z,100057.77
2017-10-30T21:00:20.122Z,100057.99
2017-10-30T21:02:46.420Z,100060.56
2017-10-30T21:05:12.683Z,100062.37
2017-10-30T21:07:38.929Z,100061.67
2017-10-30T21:10:05.196Z,100068.77
2017-10-30T21:12:31.417Z,100062.08
2017-10-30T21:14:57.655Z,100066.11
2017-10-30T21:17:23.938Z,100062.39
2017-10-30T21:19:50.159Z,100062.08
2017-10-30T21:22:16.379Z,100058.47
2017-10-30T21:24:42.653Z,100065.34
2017-10-30T21:27:08.904Z,100067.72
2017-10-30T21:29:35.136Z,100071.37
2017-10-30T21:32:01.420Z,100073.68
2017-10-30T21:34:27.652Z,100077.73
2017-10-30T21:36:53.890Z,100073.33
2017-10-30T21:39:20.147Z,100078.28
2017-10-30T21:41:46.380Z,100071.08
2017-10-30T21:44:12.634Z,100080.91
2017-10-30T21:46:38.921Z,100071.30
2017-10-30T21:49:05.171Z,100072.09
2017-10-30T21:51:31.426Z,100069.53
2017-10-30T21:53:57.709Z,100073.56
2017-10-30T21:56:23.947Z,100060.34
2017-10-30T21:58:50.188Z,100068.73
2017-10-30T22:01:16.586Z,100071.30
2017-10-30T22:03:42.830Z,100076.12
2017-10-30T22:06:09.248Z,100073.75
2017-10-30T22:08:35.537Z,100074.67
2017-10-30T22:11:01.778Z,100075.48
2017-10-30T22:13:27.992Z,100078.56
2017-10-30T22:15:54.287Z,100071.50
2017-10-30T22:18:20.520Z,100080.91
2017-10-30T22:20:46.749Z,100087.57
2017-10-30T22:23:13.027Z,100088.98
2017-10-30T22:25:39.261Z,100089.33
2017-10-30T22:28:05.492Z,100095.64
2017-10-30T22:30:31.775Z,100095.33
2017-10-30T22:32:58.004Z,100091.69
2017-10-30T22:35:24.230Z,100095.47
2017-10-30T22:37:50.512Z,100089.13
2017-10-30T22:40:16.769Z,100100.14
2017-10-30T22:42:43.007Z,100096.56
2017-10-30T22:45:09.302Z,100100.11
2017-10-30T22:47:35.554Z,100101.91
2017-10-30T22:50:01.779Z,100098.88
2017-10-30T22:52:28.047Z,100103.98
2017-10-30T22:54:54.297Z,100103.83
2017-10-30T22:57:20.560Z,100115.70
2017-10-30T22:59:46.892Z,100112.52
2017-10-30T23:02:13.139Z,100120.52
2017-10-30T23:04:39.394Z,100114.11
2017-10-30T23:07:05.684Z,100114.94
2017-10-30T23:09:32.015Z,100122.45
2017-10-30T23:11:58.242Z,100127.33
2017-10-30T23:14:24.531Z,100127.91
2017-10-30T23:16:50.764Z,100120.92
2017-10-30T23:19:17.004Z,100119.44
2017-10-30T23:21:43.294Z,100122.80
2017-10-30T23:24:09.534Z,100123.97
2017-10-30T23:26:35.775Z,100111.09
2017-10-30T23:29:02.055Z,100104.66
2017-10-30T23:31:28.296Z,100115.56
2017-10-30T23:33:54.543Z,100108.44
2017-10-30T23:36:20.833Z,100114.72
2017-10-30T23:38:47.062Z,100114.81
2017-10-30T23:41:13.297Z,100115.78
2017-10-30T23:43:39.608Z,100117.05
2017-10-30T23:46:05.852Z,100121.11
2017-10-30T23:48:32.101Z,100121.81
2017-10-30T23:50:58.373Z,100131.27
2017-10-30T23:53:24.606Z,100124.95
2017-10-30T23:55:50.847Z,100125.21
2017-10-30T23:58:17.160Z,100120.45
